createdAt,value
2023-03-26T00:01:46.554Z,32.38
2023-03-26T00:04:13.796Z,26.77
2023-03-26T00:06:41.758Z,26.63
2023-03-26T00:09:15.556Z,41.63
2023-03-26T00:11:44.226Z,37.88
2023-03-26T00:14:15.756Z,35.70
2023-03-26T00:16:43.165Z,40.13
2023-03-26T00:19:11.441Z,48.57
2023-03-26T00:21:44.922Z,48.88
2023-03-26T00:24:17.548Z,57.38
2023-03-26T00:26:45.050Z,54.45
2023-03-26T00:29:17.116Z,62.20
2023-03-26T00:31:46.424Z,54.80
2023-03-26T00:34:18.829Z,61.03
2023-03-26T00:36:54.321Z,65.05
2023-03-26T00:39:24.197Z,57.75
2023-03-26T00:41:54.371Z,51.72
2023-03-26T00:44:21.907Z,73.80
2023-03-26T00:46:48.768Z,63.30
2023-03-26T00:49:16.228Z,65.28
2023-03-26T00:51:43.593Z,70.00
2023-03-26T00:54:11.083Z,68.63
2023-03-26T00:56:38.942Z,84.70
2023-03-26T00:59:06.017Z,72.90
2023-03-26T01:01:33.098Z,67.32
2023-03-26T01:04:30.399Z,73.07
2023-03-26T01:07:01.454Z,78.53
2023-03-26T01:09:34.046Z,72.53
2023-03-26T01:12:04.637Z,70.35
2023-03-26T01:14:31.566Z,63.83
2023-03-26T01:17:04.185Z,70.63
2023-03-26T01:19:57.121Z,71.22
2023-03-26T01:22:26.241Z,75.17
2023-03-26T01:24:56.456Z,60.05
2023-03-26T01:27:49.163Z,53.65
2023-03-26T01:30:35.283Z,71.97
2023-03-26T01:33:05.296Z,76.72
2023-03-26T01:35:48.616Z,65.03
2023-03-26T01:38:40.972Z,72.75
2023-03-26T01:41:10.271Z,79.97
2023-03-26T01:43:53.411Z,63.83
2023-03-26T01:46:22.526Z,50.88
2023-03-26T01:48:49.627Z,73.57
2023-03-26T01:51:31.255Z,52.20
2023-03-26T01:53:58.627Z,54.22
2023-03-26T01:56:34.382Z,58.38
2023-03-26T01:59:35.295Z,59.13
2023-03-26T02:02:26.821Z,53.87
2023-03-26T02:05:15.362Z,57.22
2023-03-26T02:08:05.460Z,58.08
2023-03-26T02:10:37.404Z,57.53
2023-03-26T02:13:06.003Z,54.03
2023-03-26T02:15:35.544Z,49.73
2023-03-26T02:18:04.140Z,51.88
2023-03-26T02:20:31.454Z,49.45
2023-03-26T02:22:58.626Z,54.70
2023-03-26T02:25:25.863Z,54.47
2023-03-26T02:27:53.920Z,48.57
2023-03-26T02:30:29.578Z,43.70
2023-03-26T02:33:00.058Z,60.38
2023-03-26T02:35:34.782Z,61.00
2023-03-26T02:38:06.842Z,59.13
2023-03-26T02:40:33.792Z,41.93
2023-03-26T02:43:00.983Z,66.32
2023-03-26T02:45:30.279Z,49.85
2023-03-26T02:48:23.209Z,51.20
2023-03-26T02:50:58.641Z,50.63
2023-03-26T02:53:45.873Z,70.47
2023-03-26T02:56:33.082Z,48.28
2023-03-26T02:59:22.278Z,48.53
2023-03-26T03:02:02.272Z,53.17
2023-03-26T03:04:32.241Z,71.50
2023-03-26T03:07:02.326Z,49.87
2023-03-26T03:09:29.398Z,56.22
2023-03-26T03:12:16.624Z,48.20
2023-03-26T03:14:43.465Z,56.65
2023-03-26T03:17:10.837Z,50.38
2023-03-26T03:19:37.886Z,49.43
2023-03-26T03:22:05.038Z,45.38
2023-03-26T03:24:34.113Z,48.17
2023-03-26T03:27:01.247Z,62.67
2023-03-26T03:29:36.092Z,50.92
2023-03-26T03:32:27.714Z,51.50
2023-03-26T03:34:59.300Z,51.67
2023-03-26T03:37:27.045Z,50.25
2023-03-26T03:39:55.494Z,56.90
2023-03-26T03:42:25.252Z,52.38
2023-03-26T03:44:54.783Z,61.97
2023-03-26T03:47:47.785Z,56.05
2023-03-26T03:50:19.932Z,50.83
2023-03-26T03:53:06.838Z,53.22
2023-03-26T03:55:38.369Z,59.53
2023-03-26T03:58:06.216Z,52.47
2023-03-26T04:00:33.196Z,52.60
2023-03-26T04:03:32.956Z,50.45
2023-03-26T04:06:00.846Z,49.30
2023-03-26T04:08:28.747Z,46.83
2023-03-26T04:10:59.425Z,49.33
2023-03-26T04:13:52.278Z,56.03
2023-03-26T04:16:30.388Z,48.28
2023-03-26T04:18:58.363Z,55.42
2023-03-26T04:21:30.511Z,51.28
2023-03-26T04:23:57.846Z,52.30
2023-03-26T04:26:44.826Z,49.42
2023-03-26T04:29:17.793Z,45.47
2023-03-26T04:31:48.955Z,47.38
2023-03-26T04:34:24.487Z,46.70
2023-03-26T04:37:10.672Z,38.80
2023-03-26T04:39:45.199Z,60.80
2023-03-26T04:42:41.804Z,47.30
2023-03-26T04:45:30.525Z,46.40
2023-03-26T04:47:58.998Z,46.50
2023-03-26T04:50:30.454Z,59.43
2023-03-26T04:52:59.945Z,48.75
2023-03-26T04:56:14.976Z,40.38
2023-03-26T04:59:17.354Z,50.28
2023-03-26T05:01:46.408Z,53.38
2023-03-26T05:04:15.957Z,49.50
2023-03-26T05:06:45.543Z,45.28
2023-03-26T05:09:22.736Z,43.20
2023-03-26T05:12:10.319Z,45.60
2023-03-26T05:14:50.184Z,51.85
2023-03-26T05:17:27.032Z,42.70
2023-03-26T05:19:55.215Z,45.20
2023-03-26T05:22:22.514Z,53.78
2023-03-26T05:25:19.052Z,53.80
2023-03-26T05:27:46.240Z,49.78
2023-03-26T05:30:17.484Z,38.63
2023-03-26T05:32:49.384Z,44.78
2023-03-26T05:35:20.058Z,52.28
2023-03-26T05:37:54.114Z,51.90
2023-03-26T05:40:23.924Z,45.25
2023-03-26T05:42:59.884Z,34.30
2023-03-26T05:45:43.317Z,34.35
2023-03-26T05:48:38.539Z,52.40
2023-03-26T05:51:06.644Z,45.17
2023-03-26T05:53:36.633Z,48.88
2023-03-26T05:56:32.477Z,47.50
2023-03-26T05:59:17.996Z,41.65
2023-03-26T06:01:45.095Z,48.42
2023-03-26T06:04:41.013Z,44.75
2023-03-26T06:07:35.187Z,45.50
2023-03-26T06:10:10.781Z,39.07
2023-03-26T06:12:51.410Z,42.60
2023-03-26T06:15:19.148Z,44.08
2023-03-26T06:18:06.414Z,43.08
2023-03-26T06:20:59.914Z,42.20
2023-03-26T06:23:56.087Z,40.47
2023-03-26T06:26:37.574Z,49.58
2023-03-26T06:29:23.557Z,42.55
2023-03-26T06:31:54.440Z,37.22
2023-03-26T06:34:25.842Z,42.22
2023-03-26T06:36:53.005Z,37.80
2023-03-26T06:39:21.722Z,44.67
2023-03-26T06:42:19.988Z,38.35
2023-03-26T06:45:06.163Z,38.58
2023-03-26T06:47:51.532Z,50.05
2023-03-26T06:50:37.147Z,37.03
2023-03-26T06:53:22.672Z,43.78
2023-03-26T06:56:15.551Z,41.35
2023-03-26T06:59:02.694Z,55.75
2023-03-26T07:02:04.856Z,38.10
2023-03-26T07:04:50.788Z,48.20
2023-03-26T07:07:36.375Z,35.80
2023-03-26T07:10:31.931Z,43.83
2023-03-26T07:13:10.360Z,41.42
2023-03-26T07:15:57.457Z,44.22
2023-03-26T07:18:41.760Z,50.33
2023-03-26T07:21:11.598Z,51.80
2023-03-26T07:23:40.285Z,41.92
2023-03-26T07:26:59.049Z,40.35
2023-03-26T07:29:58.068Z,47.35
2023-03-26T07:33:17.127Z,31.40
2023-03-26T07:36:25.803Z,43.03
2023-03-26T07:39:58.253Z,46.28
2023-03-26T07:42:51.642Z,40.88
2023-03-26T07:45:45.634Z,32.42
2023-03-26T07:48:27.454Z,30.73
2023-03-26T07:51:20.940Z,35.13
2023-03-26T07:53:52.759Z,34.80
2023-03-26T07:56:59.166Z,42.83
2023-03-26T08:00:01.289Z,34.25
2023-03-26T08:03:07.332Z,35.37
2023-03-26T08:06:12.574Z,46.30
2023-03-26T08:09:52.615Z,33.45
2023-03-26T08:12:57.938Z,33.03
2023-03-26T08:15:32.643Z,32.15
2023-03-26T08:18:31.252Z,35.57
2023-03-26T08:21:14.069Z,33.92
2023-03-26T08:24:13.878Z,43.22
2023-03-26T08:26:57.406Z,41.72
2023-03-26T08:29:42.267Z,34.45
2023-03-26T08:32:14.548Z,32.70
2023-03-26T08:34:41.956Z,28.55
2023-03-26T08:37:12.210Z,40.30
2023-03-26T08:39:42.572Z,33.10
2023-03-26T08:42:27.953Z,28.02
2023-03-26T08:45:34.223Z,37.90
2023-03-26T08:48:16.019Z,39.83
2023-03-26T08:50:42.958Z,43.72
2023-03-26T08:53:34.807Z,23.67
2023-03-26T08:56:32.735Z,32.30
2023-03-26T08:59:33.352Z,33.57
2023-03-26T09:02:31.425Z,32.63
2023-03-26T09:05:27.032Z,27.23
2023-03-26T09:08:32.783Z,33.90
2023-03-26T09:11:56.025Z,31.83
2023-03-26T09:14:50.883Z,29.00
2023-03-26T09:17:57.768Z,28.45
2023-03-26T09:20:56.764Z,31.50
2023-03-26T09:23:49.737Z,32.97
2023-03-26T09:26:44.543Z,23.00
2023-03-26T09:29:26.216Z,30.30
2023-03-26T09:32:20.604Z,22.58
2023-03-26T09:35:05.895Z,23.75
2023-03-26T09:37:57.871Z,19.92
2023-03-26T09:40:52.943Z,16.63
2023-03-26T09:44:00.677Z,16.77
2023-03-26T09:47:10.602Z,18.65
2023-03-26T09:50:03.727Z,15.40
2023-03-26T09:52:57.238Z,14.43
2023-03-26T09:55:53.307Z,15.15
2023-03-26T09:58:48.317Z,20.67
2023-03-26T10:01:19.472Z,21.42
2023-03-26T10:04:09.509Z,23.33
2023-03-26T10:06:45.928Z,15.02
2023-03-26T10:09:38.549Z,11.20
2023-03-26T10:12:05.354Z,13.93
2023-03-26T10:15:00.104Z,14.68
2023-03-26T10:17:46.564Z,10.77
2023-03-26T10:20:31.823Z,12.57
2023-03-26T10:23:08.824Z,13.85
2023-03-26T10:25:42.720Z,14.30
2023-03-26T10:28:32.772Z,15.13
2023-03-26T10:31:39.335Z,17.05
2023-03-26T10:34:28.572Z,18.00
2023-03-26T10:37:35.790Z,21.23
2023-03-26T10:40:10.556Z,17.03
2023-03-26T10:42:57.441Z,16.27
2023-03-26T10:46:08.006Z,13.88
2023-03-26T10:49:16.223Z,18.25
2023-03-26T10:51:59.919Z,9.88
2023-03-26T10:54:31.150Z,14.43
2023-03-26T10:57:00.838Z,11.88
2023-03-26T10:59:28.165Z,13.63
2023-03-26T11:02:30.290Z,23.30
2023-03-26T11:05:33.569Z,13.95
2023-03-26T11:08:16.296Z,17.30
2023-03-26T11:11:22.563Z,22.42
2023-03-26T11:14:35.112Z,20.63
2023-03-26T11:17:40.963Z,21.58
2023-03-26T11:20:21.919Z,22.30
2023-03-26T11:26:18.787Z,18.10
2023-03-26T11:32:08.138Z,21.63
2023-03-26T11:37:43.674Z,19.07
2023-03-26T11:40:40.868Z,15.82
2023-03-26T11:43:13.662Z,23.70
2023-03-26T11:45:52.785Z,18.98
2023-03-26T11:48:40.537Z,18.48
2023-03-26T11:51:36.811Z,22.70
2023-03-26T11:54:06.496Z,15.45
2023-03-26T11:57:05.689Z,25.95
2023-03-26T12:00:05.036Z,27.25
2023-03-26T12:02:58.774Z,23.58
2023-03-26T12:05:36.664Z,27.87
2023-03-26T12:08:17.752Z,30.33
2023-03-26T12:11:00.659Z,24.88
2023-03-26T12:13:43.449Z,28.33
2023-03-26T12:16:17.102Z,16.83
2023-03-26T12:18:45.978Z,20.83
2023-03-26T12:21:16.605Z,20.23
2023-03-26T12:23:50.897Z,12.57
2023-03-26T12:26:20.803Z,24.15
2023-03-26T12:28:50.541Z,20.80
2023-03-26T12:31:19.580Z,19.90
2023-03-26T12:34:07.565Z,16.55
2023-03-26T12:36:35.731Z,21.00
2023-03-26T12:40:10.778Z,15.52
2023-03-26T12:44:53.966Z,23.55
2023-03-26T12:45:43.539Z,16.63
2023-03-26T12:48:15.709Z,29.63
2023-03-26T12:51:13.159Z,20.02
2023-03-26T12:53:55.178Z,15.55
2023-03-26T12:56:36.403Z,23.25
2023-03-26T12:59:12.546Z,23.27
2023-03-26T13:02:01.378Z,20.50
2023-03-26T13:05:07.127Z,26.05
2023-03-26T13:08:01.528Z,21.42
2023-03-26T13:10:58.631Z,24.40
2023-03-26T13:13:46.436Z,23.10
2023-03-26T13:16:37.416Z,18.90
2023-03-26T13:19:07.309Z,13.63
2023-03-26T13:21:43.616Z,23.30
2023-03-26T13:24:13.596Z,24.15
2023-03-26T13:26:49.416Z,24.13
2023-03-26T13:29:41.471Z,25.13
2023-03-26T13:32:11.590Z,22.88
2023-03-26T13:35:22.330Z,17.83
2023-03-26T13:38:07.566Z,26.27
2023-03-26T13:41:03.728Z,22.07
2023-03-26T13:44:03.897Z,14.55
2023-03-26T13:46:45.923Z,16.33
2023-03-26T13:49:21.748Z,15.18
2023-03-26T13:52:05.343Z,20.95
2023-03-26T13:54:34.921Z,11.83
2023-03-26T13:57:24.971Z,13.23
2023-03-26T14:00:12.551Z,18.33
2023-03-26T14:02:44.247Z,16.23
2023-03-26T14:05:17.681Z,16.63
2023-03-26T14:07:57.312Z,8.17
2023-03-26T14:17:49.597Z,13.60
2023-03-26T14:20:37.490Z,18.58
2023-03-26T14:23:19.802Z,14.30
2023-03-26T14:26:20.425Z,14.02
2023-03-26T14:29:15.256Z,15.80
2023-03-26T14:32:07.359Z,10.68
2023-03-26T14:35:23.274Z,11.30
2023-03-26T14:38:19.606Z,16.47
2023-03-26T14:41:11.587Z,12.73
2023-03-26T14:44:05.202Z,18.95
2023-03-26T14:47:14.466Z,13.80
2023-03-26T14:50:25.442Z,12.63
2023-03-26T14:53:01.048Z,12.87
2023-03-26T14:55:40.909Z,11.85
2023-03-26T14:58:22.246Z,14.57
2023-03-26T15:01:27.834Z,11.95
2023-03-26T15:04:39.278Z,11.45
2023-03-26T15:07:33.353Z,13.67
2023-03-26T15:10:09.677Z,16.33
2023-03-26T15:12:57.613Z,9.55
2023-03-26T15:15:41.098Z,11.93
2023-03-26T15:18:35.657Z,17.55
2023-03-26T15:21:17.648Z,17.43
2023-03-26T15:24:03.246Z,10.90
2023-03-26T15:26:33.872Z,12.75
2023-03-26T15:29:15.741Z,10.55
2023-03-26T15:32:17.300Z,19.48
2023-03-26T15:35:17.596Z,10.73
2023-03-26T15:38:30.100Z,14.00
2023-03-26T15:41:31.494Z,11.77
2023-03-26T15:44:23.285Z,10.88
2023-03-26T15:47:10.693Z,19.02
2023-03-26T15:49:44.763Z,11.30
2023-03-26T15:52:21.112Z,12.25
2023-03-26T15:55:17.089Z,10.98
2023-03-26T15:57:48.833Z,13.30
2023-03-26T16:00:29.095Z,13.65
2023-03-26T16:03:10.708Z,10.67
2023-03-26T16:06:11.321Z,14.68
2023-03-26T16:09:00.161Z,14.38
2023-03-26T16:11:48.711Z,9.55
2023-03-26T16:14:34.535Z,12.52
2023-03-26T16:17:06.651Z,18.60
2023-03-26T16:19:41.226Z,8.45
2023-03-26T16:22:15.056Z,10.18
2023-03-26T16:24:46.786Z,16.20
2023-03-26T16:27:16.300Z,15.90
2023-03-26T16:30:23.560Z,16.80
2023-03-26T16:33:08.306Z,11.50
2023-03-26T16:35:39.206Z,15.90
2023-03-26T16:38:24.948Z,15.27
2023-03-26T16:41:17.964Z,14.27
2023-03-26T16:43:50.902Z,16.17
2023-03-26T16:46:36.373Z,12.35
2023-03-26T16:49:29.030Z,15.45
2023-03-26T16:52:18.888Z,10.77
2023-03-26T16:55:15.989Z,18.88
2023-03-26T16:58:24.709Z,7.70
2023-03-26T17:01:15.960Z,22.27
2023-03-26T17:04:24.136Z,17.48
2023-03-26T17:07:17.295Z,19.27
2023-03-26T17:10:14.473Z,12.60
2023-03-26T17:13:11.585Z,9.97
2023-03-26T17:16:03.917Z,9.68
2023-03-26T17:22:28.283Z,12.85
2023-03-26T17:25:32.220Z,19.58
2023-03-26T17:28:51.312Z,12.37
2023-03-26T17:35:09.539Z,5.18
2023-03-26T17:38:30.135Z,10.48
2023-03-26T17:41:17.447Z,8.98
2023-03-26T17:43:57.297Z,17.60
2023-03-26T17:46:36.280Z,18.27
2023-03-26T17:49:46.921Z,10.95
2023-03-26T17:52:39.607Z,14.43
2023-03-26T17:56:00.214Z,12.48
2023-03-26T17:59:13.991Z,19.17
2023-03-26T18:01:49.520Z,13.23
2023-03-26T18:05:15.753Z,10.43
2023-03-26T18:11:49.748Z,4.30
2023-03-26T18:15:22.418Z,14.67
2023-03-26T18:23:06.416Z,7.47
2023-03-26T18:25:41.487Z,14.93
2023-03-26T18:28:16.134Z,7.60
2023-03-26T18:30:57.413Z,9.97
2023-03-26T18:33:40.145Z,7.60
2023-03-26T18:36:42.098Z,20.40
2023-03-26T18:39:16.593Z,15.73
2023-03-26T18:42:08.351Z,13.60
2023-03-26T18:44:53.293Z,11.03
2023-03-26T18:47:22.165Z,10.85
2023-03-26T18:50:03.169Z,18.92
2023-03-26T18:52:33.864Z,8.80
2023-03-26T18:55:17.860Z,10.23
2023-03-26T18:57:54.803Z,15.80
2023-03-26T19:00:33.524Z,11.98
2023-03-26T19:03:15.414Z,11.27
2023-03-26T19:05:53.628Z,31.70
2023-03-26T19:08:23.970Z,14.35
2023-03-26T19:11:04.925Z,10.63
2023-03-26T19:13:34.581Z,16.10
2023-03-26T19:16:15.210Z,17.05
2023-03-26T19:18:44.784Z,18.05
2023-03-26T19:21:13.629Z,22.60
2023-03-26T19:23:42.172Z,23.03
2023-03-26T19:26:12.248Z,18.92
2023-03-26T19:28:51.343Z,18.35
2023-03-26T19:31:30.672Z,7.80
2023-03-26T19:34:03.996Z,12.27
2023-03-26T19:37:05.348Z,14.33
2023-03-26T19:39:42.785Z,12.63
2023-03-26T19:42:23.490Z,26.35
2023-03-26T19:44:53.993Z,13.73
2023-03-26T19:47:43.552Z,22.77
2023-03-26T19:50:27.930Z,23.60
2023-03-26T19:53:17.045Z,15.05
2023-03-26T19:56:15.631Z,12.52
2023-03-26T19:58:43.285Z,12.98
2023-03-26T20:01:29.825Z,10.55
2023-03-26T20:04:01.126Z,14.33
2023-03-26T20:09:22.335Z,10.05
2023-03-26T20:11:53.204Z,12.93
2023-03-26T20:14:28.870Z,9.35
2023-03-26T20:17:00.500Z,8.33
2023-03-26T20:19:29.781Z,10.80
2023-03-26T20:22:02.236Z,17.38
2023-03-26T20:24:30.495Z,16.67
2023-03-26T20:26:59.324Z,20.75
2023-03-26T20:29:28.473Z,7.03
2023-03-26T20:31:58.468Z,8.05
2023-03-26T20:34:26.198Z,19.05
2023-03-26T20:37:01.204Z,10.48
2023-03-26T20:39:30.781Z,7.60
2023-03-26T20:41:58.120Z,13.07
2023-03-26T20:44:27.394Z,10.10
2023-03-26T20:46:56.646Z,17.00
2023-03-26T20:49:43.381Z,10.93
2023-03-26T20:52:14.223Z,11.93
2023-03-26T20:54:42.037Z,8.83
2023-03-26T20:57:14.517Z,12.25
2023-03-26T20:59:45.935Z,11.27
2023-03-26T21:02:17.897Z,11.52
2023-03-26T21:04:47.533Z,7.97
2023-03-26T21:07:18.209Z,5.37
2023-03-26T21:09:47.678Z,10.45
2023-03-26T21:12:30.198Z,11.07
2023-03-26T21:15:01.741Z,10.25
2023-03-26T21:17:32.574Z,13.07
2023-03-26T21:20:11.374Z,5.57
2023-03-26T21:23:30.445Z,13.35
2023-03-26T21:26:12.276Z,11.05
2023-03-26T21:28:49.356Z,11.00
2023-03-26T21:31:23.337Z,10.98
2023-03-26T21:33:51.111Z,9.90
2023-03-26T21:36:26.056Z,13.07
2023-03-26T21:38:54.823Z,7.50
2023-03-26T21:41:43.972Z,12.32
2023-03-26T21:44:11.118Z,10.10
2023-03-26T21:46:41.786Z,11.23
2023-03-26T21:49:12.246Z,8.02
2023-03-26T21:51:39.462Z,8.45
2023-03-26T21:54:22.444Z,8.15
2023-03-26T21:57:05.262Z,12.57
2023-03-26T21:59:41.348Z,6.87
2023-03-26T22:02:34.085Z,10.35
2023-03-26T22:05:15.253Z,7.90
2023-03-26T22:07:48.116Z,8.63
2023-03-26T22:10:15.090Z,7.70
2023-03-26T22:12:42.148Z,12.30
2023-03-26T22:15:11.622Z,11.63
2023-03-26T22:17:39.973Z,13.80
2023-03-26T22:20:12.623Z,12.70
2023-03-26T22:22:41.631Z,9.35
2023-03-26T22:25:12.835Z,7.03
2023-03-26T22:27:44.907Z,6.10
2023-03-26T22:30:13.886Z,8.57
2023-03-26T22:32:41.610Z,6.72
2023-03-26T22:35:09.296Z,7.45
2023-03-26T22:37:37.352Z,8.47
2023-03-26T22:40:08.524Z,8.25
2023-03-26T22:42:38.629Z,6.72
2023-03-26T22:45:06.202Z,13.80
2023-03-26T22:47:36.770Z,9.15
2023-03-26T22:50:08.153Z,6.97
2023-03-26T22:52:36.692Z,7.80
2023-03-26T22:55:05.374Z,10.98
2023-03-26T22:57:32.459Z,10.35
2023-03-26T23:00:14.676Z,9.43
2023-03-26T23:02:45.794Z,10.00
2023-03-26T23:05:14.597Z,7.35
2023-03-26T23:07:42.642Z,8.55
2023-03-26T23:10:11.385Z,8.75
2023-03-26T23:12:39.664Z,11.55
2023-03-26T23:15:08.134Z,9.03
2023-03-26T23:17:36.771Z,6.53
2023-03-26T23:20:17.482Z,12.75
2023-03-26T23:22:45.001Z,8.70
2023-03-26T23:25:12.286Z,8.93
2023-03-26T23:27:41.584Z,5.70
2023-03-26T23:30:10.882Z,6.97
2023-03-26T23:32:38.317Z,20.45
2023-03-26T23:35:06.253Z,10.15
2023-03-26T23:37:35.191Z,6.88
2023-03-26T23:40:07.681Z,3.87
2023-03-26T23:42:34.990Z,6.13
2023-03-26T23:45:08.758Z,6.88
2023-03-26T23:47:36.143Z,16.27
2023-03-26T23:50:04.950Z,18.00
2023-03-26T23:52:33.231Z,13.90
2023-03-26T23:55:00.229Z,7.00
2023-03-26T23:57:27.475Z,14.27
2023-03-26T23:59:56.938Z,15.50
